Time;durP1;ratioP1;P1;durP2;ratioP2;P2;SDS_P1;SDS_P2;PMS_P1;PMS_P2;Temp;Humidity;BMP_temperature;BMP_pressure;BME280_temperature;BME280_humidity;BME280_pressure;Samples;Min_cycle;Max_cycle;Signal;HPM_P1;HPM_P2
2022/04/23 00:00:38;;;;;;;14.40;8.40;;;;;;;;;;5018414;28;20203;-39
2022/04/23 00:03:05;;;;;;;8.63;7.73;;;;;;;;;;5028093;28;20210;-39
2022/04/23 00:05:34;;;;;;;8.10;7.20;;;;;;;;;;5029806;28;20231;-37
2022/04/23 00:08:01;;;;;;;8.20;7.40;;;;;;;;;;5029234;28;20213;-38
2022/04/23 00:10:28;;;;;;;8.00;6.67;;;;;;;;;;5026533;28;20207;-36
2022/04/23 00:12:55;;;;;;;8.63;7.30;;;;;;;;;;5016642;28;20302;-40
2022/04/23 00:15:25;;;;;;;9.17;7.07;;;;;;;;;;5027378;28;20227;-39
2022/04/23 00:17:52;;;;;;;10.37;7.30;;;;;;;;;;5021475;28;20211;-36
2022/04/23 00:20:19;;;;;;;8.60;6.73;;;;;;;;;;5012037;28;20212;-34
2022/04/23 00:22:48;;;;;;;8.20;6.50;;;;;;;;;;5013363;28;20277;-37
2022/04/23 00:25:15;;;;;;;6.90;6.20;;;;;;;;;;5016479;28;20319;-40
2022/04/23 00:27:42;;;;;;;7.20;6.47;;;;;;;;;;5029221;28;20268;-40
2022/04/23 00:30:10;;;;;;;7.30;6.60;;;;;;;;;;5025768;28;20213;-35
2022/04/23 00:32:37;;;;;;;6.90;6.20;;;;;;;;;;5021875;28;20211;-38
2022/04/23 00:35:05;;;;;;;7.73;6.93;;;;;;;;;;5024052;28;20194;-36
2022/04/23 00:37:33;;;;;;;7.17;6.47;;;;;;;;;;5031342;28;20203;-39
2022/04/23 00:40:06;;;;;;;8.60;7.07;;;;;;;;;;5024935;28;20207;-38
2022/04/23 00:42:33;;;;;;;7.10;6.13;;;;;;;;;;5027345;28;20203;-37
2022/04/23 00:45:00;;;;;;;8.77;6.73;;;;;;;;;;5017791;28;20219;-42
2022/04/23 00:47:27;;;;;;;7.83;6.53;;;;;;;;;;5019262;28;20313;-38
2022/04/23 00:49:56;;;;;;;7.70;6.90;;;;;;;;;;5030135;28;20207;-38
2022/04/23 00:52:24;;;;;;;7.60;6.80;;;;;;;;;;5026215;28;20298;-38
2022/04/23 00:54:51;;;;;;;8.43;7.43;;;;;;;;;;5024448;28;20265;-34
2022/04/23 00:57:20;;;;;;;7.67;6.80;;;;;;;;;;5024342;28;20239;-37
2022/04/23 00:59:49;;;;;;;8.57;7.67;;;;;;;;;;5011704;28;20219;-37
2022/04/23 01:02:16;;;;;;;9.80;7.13;;;;;;;;;;5022988;28;20208;-31
2022/04/23 01:04:44;;;;;;;8.03;6.67;;;;;;;;;;5026918;28;20191;-34
2022/04/23 01:07:13;;;;;;;9.00;7.50;;;;;;;;;;5013601;28;20323;-37
2022/04/23 01:09:41;;;;;;;8.27;7.40;;;;;;;;;;5019717;28;20276;-36
2022/04/23 01:12:08;;;;;;;8.07;6.93;;;;;;;;;;5023907;28;20284;-37
2022/04/23 01:14:57;;;;;;;8.33;7.53;;;;;;;;;;5026729;28;20211;-39
2022/04/23 01:17:24;;;;;;;9.50;7.73;;;;;;;;;;5026400;28;20212;-35
2022/04/23 01:19:51;;;;;;;8.90;7.53;;;;;;;;;;5011649;28;20231;-40
2022/04/23 01:22:20;;;;;;;9.53;7.97;;;;;;;;;;5014163;28;20301;-34
2022/04/23 01:24:48;;;;;;;8.40;7.43;;;;;;;;;;5027466;28;20235;-38
2022/04/23 01:27:15;;;;;;;9.00;7.73;;;;;;;;;;5016332;28;20212;-39
2022/04/23 01:29:42;;;;;;;8.57;7.73;;;;;;;;;;5024092;28;20217;-39
2022/04/23 01:32:10;;;;;;;8.13;7.17;;;;;;;;;;5024509;28;20203;-33
2022/04/23 01:34:37;;;;;;;8.57;7.67;;;;;;;;;;5023761;28;20207;-35
2022/04/23 01:37:04;;;;;;;8.70;7.70;;;;;;;;;;5010973;28;20224;-39
2022/04/23 01:39:33;;;;;;;11.07;7.67;;;;;;;;;;5011121;28;20211;-34
2022/04/23 01:42:00;;;;;;;8.40;7.40;;;;;;;;;;5018839;28;20199;-40
2022/04/23 01:44:27;;;;;;;9.27;8.20;;;;;;;;;;5013574;28;20204;-40
2022/04/23 01:46:54;;;;;;;9.27;7.40;;;;;;;;;;5021429;28;20317;-39
2022/04/23 01:49:21;;;;;;;8.30;7.43;;;;;;;;;;5021646;28;20203;-39
2022/04/23 01:51:48;;;;;;;9.33;8.10;;;;;;;;;;5022136;28;20214;-39
2022/04/23 01:54:15;;;;;;;8.77;7.70;;;;;;;;;;5016778;28;20214;-34
2022/04/23 01:56:44;;;;;;;9.30;7.43;;;;;;;;;;5027974;28;20347;-38
2022/04/23 01:59:11;;;;;;;8.57;7.77;;;;;;;;;;5026607;28;20202;-40
2022/04/23 02:01:38;;;;;;;9.77;7.50;;;;;;;;;;5020788;28;20221;-38
2022/04/23 02:04:08;;;;;;;8.97;8.07;;;;;;;;;;5017129;28;20199;-37
2022/04/23 02:06:35;;;;;;;11.47;7.47;;;;;;;;;;5010564;28;20266;-33
2022/04/23 02:09:02;;;;;;;8.70;7.83;;;;;;;;;;5015413;28;20203;-32
2022/04/23 02:11:29;;;;;;;8.73;7.63;;;;;;;;;;5027952;28;20233;-33
2022/04/23 02:13:58;;;;;;;8.97;8.07;;;;;;;;;;5020190;28;20200;-37
2022/04/23 02:16:25;;;;;;;9.70;7.70;;;;;;;;;;5019773;28;20290;-36
2022/04/23 02:18:52;;;;;;;8.67;7.77;;;;;;;;;;5030856;28;20199;-40
2022/04/23 02:21:20;;;;;;;7.70;7.00;;;;;;;;;;5030936;28;20218;-35
2022/04/23 02:23:47;;;;;;;8.37;7.57;;;;;;;;;;5024493;28;20212;-38
2022/04/23 02:26:14;;;;;;;8.50;7.57;;;;;;;;;;5020981;28;20254;-41
2022/04/23 02:28:42;;;;;;;7.50;6.80;;;;;;;;;;5020273;28;20207;-39
2022/04/23 02:31:10;;;;;;;8.27;7.37;;;;;;;;;;5028699;28;20213;-32
2022/04/23 02:33:37;;;;;;;7.97;7.17;;;;;;;;;;5017958;28;20249;-42
2022/04/23 02:36:06;;;;;;;9.03;7.47;;;;;;;;;;5017769;28;20255;-35
2022/04/23 02:38:33;;;;;;;8.30;7.50;;;;;;;;;;5019443;28;20199;-35
2022/04/23 02:41:00;;;;;;;7.50;6.70;;;;;;;;;;5023348;28;20207;-41
2022/04/23 02:43:27;;;;;;;8.47;7.43;;;;;;;;;;5027023;28;20206;-37
2022/04/23 02:45:54;;;;;;;7.90;7.10;;;;;;;;;;5014661;28;20235;-34
2022/04/23 02:48:23;;;;;;;8.00;7.20;;;;;;;;;;5022445;28;20234;-41
2022/04/23 02:50:50;;;;;;;7.97;7.17;;;;;;;;;;5032354;28;20209;-39
2022/04/23 02:53:17;;;;;;;8.40;7.50;;;;;;;;;;5014049;28;20215;-35
2022/04/23 02:55:46;;;;;;;7.83;7.03;;;;;;;;;;5024135;28;20238;-33
2022/04/23 02:58:13;;;;;;;7.20;6.53;;;;;;;;;;5032790;28;20199;-35
2022/04/23 03:00:41;;;;;;;8.27;7.47;;;;;;;;;;5025966;28;20203;-34
2022/04/23 03:03:08;;;;;;;8.00;7.20;;;;;;;;;;5018043;28;20200;-40
2022/04/23 03:05:37;;;;;;;8.30;7.47;;;;;;;;;;5029311;28;20222;-39
2022/04/23 03:08:07;;;;;;;7.43;6.67;;;;;;;;;;5023103;28;20222;-33
2022/04/23 03:10:34;;;;;;;7.63;6.53;;;;;;;;;;5023659;28;20219;-38
2022/04/23 03:13:01;;;;;;;8.07;6.40;;;;;;;;;;5013004;28;20222;-38
2022/04/23 03:15:29;;;;;;;7.43;6.60;;;;;;;;;;5017788;28;20226;-34
2022/04/23 03:18:04;;;;;;;8.13;7.33;;;;;;;;;;5023073;28;20207;-36
2022/04/23 03:20:32;;;;;;;8.37;6.77;;;;;;;;;;5016137;28;20195;-40
2022/04/23 03:23:00;;;;;;;7.07;6.33;;;;;;;;;;5014508;28;20210;-34
2022/04/23 03:25:27;;;;;;;7.97;7.17;;;;;;;;;;5015955;28;20233;-38
2022/04/23 03:27:55;;;;;;;8.37;7.10;;;;;;;;;;5032155;28;20313;-33
2022/04/23 03:30:22;;;;;;;7.17;6.37;;;;;;;;;;5025534;28;20211;-39
2022/04/23 03:32:50;;;;;;;7.57;6.83;;;;;;;;;;5021997;28;20230;-41
2022/04/23 03:35:17;;;;;;;7.60;6.80;;;;;;;;;;5017577;28;20240;-37
2022/04/23 03:37:47;;;;;;;8.77;6.40;;;;;;;;;;5016332;28;20203;-39
2022/04/23 03:40:16;;;;;;;8.03;7.23;;;;;;;;;;5022241;28;20204;-34
2022/04/23 03:42:48;;;;;;;8.87;6.60;;;;;;;;;;5029213;28;20207;-36
2022/04/23 03:45:16;;;;;;;8.63;7.30;;;;;;;;;;5032332;28;20227;-38
2022/04/23 03:47:47;;;;;;;8.20;7.23;;;;;;;;;;5026174;28;20219;-37
2022/04/23 03:50:14;;;;;;;8.60;7.70;;;;;;;;;;5022214;28;20237;-38
2022/04/23 03:52:44;;;;;;;8.80;7.57;;;;;;;;;;5026337;28;20294;-36
2022/04/23 03:55:12;;;;;;;7.60;6.83;;;;;;;;;;5022002;28;20223;-35
2022/04/23 03:57:51;;;;;;;8.97;7.23;;;;;;;;;;5017783;28;20294;-37
2022/04/23 04:00:20;;;;;;;7.73;6.80;;;;;;;;;;5028484;28;20206;-34
2022/04/23 04:02:47;;;;;;;8.17;6.93;;;;;;;;;;5028935;28;20218;-38
2022/04/23 04:05:14;;;;;;;9.17;8.13;;;;;;;;;;5019891;28;20227;-36
2022/04/23 04:07:45;;;;;;;8.67;7.50;;;;;;;;;;5023476;28;20226;-33
2022/04/23 04:10:12;;;;;;;8.27;7.40;;;;;;;;;;5027594;28;20197;-36
2022/04/23 04:12:39;;;;;;;9.20;8.20;;;;;;;;;;5013622;28;20207;-33
2022/04/23 04:15:09;;;;;;;8.30;7.47;;;;;;;;;;5018207;28;20226;-36
2022/04/23 04:17:37;;;;;;;9.33;7.87;;;;;;;;;;5030444;28;20213;-41
2022/04/23 04:20:04;;;;;;;12.13;7.87;;;;;;;;;;5022296;28;20204;-37
2022/04/23 04:22:31;;;;;;;8.33;7.43;;;;;;;;;;5022989;28;20211;-38
2022/04/23 04:24:59;;;;;;;9.37;7.70;;;;;;;;;;5025729;28;20195;-38
2022/04/23 04:27:26;;;;;;;7.73;6.13;;;;;;;;;;5018243;28;20258;-37
2022/04/23 04:29:53;;;;;;;8.00;6.83;;;;;;;;;;5012077;28;20713;-39
2022/04/23 04:32:22;;;;;;;8.60;7.10;;;;;;;;;;5014414;28;20211;-33
2022/04/23 04:34:49;;;;;;;8.73;7.40;;;;;;;;;;5021326;28;20222;-36
2022/04/23 04:37:18;;;;;;;9.73;8.13;;;;;;;;;;5027206;28;20208;-35
2022/04/23 04:39:45;;;;;;;8.57;7.70;;;;;;;;;;5028314;28;20206;-39
2022/04/23 04:42:13;;;;;;;8.00;7.20;;;;;;;;;;5013614;28;20203;-38
2022/04/23 04:44:40;;;;;;;8.27;7.33;;;;;;;;;;5013607;28;20211;-40
2022/04/23 04:47:08;;;;;;;7.57;6.60;;;;;;;;;;5018446;28;20219;-36
2022/04/23 04:49:36;;;;;;;8.03;7.07;;;;;;;;;;5023055;28;20264;-39
2022/04/23 04:52:04;;;;;;;8.47;7.00;;;;;;;;;;5018607;28;20203;-32
2022/04/23 04:54:31;;;;;;;9.10;7.87;;;;;;;;;;5020837;28;20207;-34
2022/04/23 04:56:58;;;;;;;7.50;6.80;;;;;;;;;;5024904;28;20230;-41
2022/04/23 04:59:25;;;;;;;7.00;6.00;;;;;;;;;;5024003;28;20213;-39
2022/04/23 05:01:53;;;;;;;8.07;6.90;;;;;;;;;;5023528;28;20289;-32
2022/04/23 05:04:23;;;;;;;7.83;7.03;;;;;;;;;;5023831;28;20210;-33
2022/04/23 05:06:51;;;;;;;8.67;7.30;;;;;;;;;;5028946;28;20226;-40
2022/04/23 05:09:18;;;;;;;7.93;7.13;;;;;;;;;;5023860;28;20265;-37
2022/04/23 05:11:46;;;;;;;8.00;6.80;;;;;;;;;;5024222;28;20208;-36
2022/04/23 05:14:13;;;;;;;9.80;6.83;;;;;;;;;;5032804;28;20214;-35
2022/04/23 05:16:40;;;;;;;7.93;7.13;;;;;;;;;;5029784;28;20230;-34
2022/04/23 05:19:08;;;;;;;7.57;6.87;;;;;;;;;;5018155;28;20199;-38
2022/04/23 05:21:35;;;;;;;7.97;6.77;;;;;;;;;;5020065;28;20207;-34
2022/04/23 05:24:06;;;;;;;6.97;6.33;;;;;;;;;;5027075;28;20241;-35
2022/04/23 05:26:34;;;;;;;7.13;6.40;;;;;;;;;;5023969;28;20234;-35
2022/04/23 05:29:01;;;;;;;7.97;6.90;;;;;;;;;;5012349;28;20222;-36
2022/04/23 05:31:28;;;;;;;8.47;7.57;;;;;;;;;;5015344;28;20211;-39
2022/04/23 05:33:55;;;;;;;7.60;6.90;;;;;;;;;;5022222;28;20202;-38
2022/04/23 05:36:22;;;;;;;7.27;6.50;;;;;;;;;;5016711;28;20231;-34
2022/04/23 05:38:50;;;;;;;7.77;6.60;;;;;;;;;;5022620;28;20203;-34
2022/04/23 05:41:18;;;;;;;8.47;6.50;;;;;;;;;;5025687;28;20222;-34
2022/04/23 05:43:45;;;;;;;7.53;6.77;;;;;;;;;;5013763;28;20214;-40
2022/04/23 05:46:12;;;;;;;7.33;6.63;;;;;;;;;;5021976;28;20233;-38
2022/04/23 05:48:39;;;;;;;7.67;6.27;;;;;;;;;;5015603;28;20227;-37
2022/04/23 05:51:06;;;;;;;7.20;6.50;;;;;;;;;;5013402;28;20203;-40
2022/04/23 05:53:34;;;;;;;6.03;5.20;;;;;;;;;;5014428;28;20218;-40
2022/04/23 05:56:01;;;;;;;6.93;6.30;;;;;;;;;;5019646;28;20233;-40
2022/04/23 05:58:29;;;;;;;7.43;6.73;;;;;;;;;;5012745;28;20213;-33
2022/04/23 06:00:57;;;;;;;5.90;5.30;;;;;;;;;;5013601;28;20203;-39
2022/04/23 06:03:24;;;;;;;6.60;6.00;;;;;;;;;;5019163;28;20214;-38
2022/04/23 06:05:51;;;;;;;6.50;5.90;;;;;;;;;;5031966;28;20229;-33
2022/04/23 06:08:18;;;;;;;6.97;6.27;;;;;;;;;;5019843;28;20223;-30
2022/04/23 06:10:45;;;;;;;6.53;5.90;;;;;;;;;;5023718;28;20206;-37
2022/04/23 06:13:13;;;;;;;6.90;6.20;;;;;;;;;;5016472;28;20207;-38
2022/04/23 06:15:42;;;;;;;7.27;6.57;;;;;;;;;;5025444;28;20252;-34
2022/04/23 06:18:09;;;;;;;6.70;5.90;;;;;;;;;;5030144;28;20219;-39
2022/04/23 06:20:36;;;;;;;6.80;6.10;;;;;;;;;;5033088;28;20203;-39
2022/04/23 06:23:04;;;;;;;8.57;6.63;;;;;;;;;;5017454;28;20208;-40
2022/04/23 06:25:32;;;;;;;7.40;6.70;;;;;;;;;;5018905;28;20227;-39
2022/04/23 06:27:59;;;;;;;7.40;6.70;;;;;;;;;;5035713;28;20219;-36
2022/04/23 06:30:26;;;;;;;8.17;6.87;;;;;;;;;;5033372;28;20211;-37
2022/04/23 06:32:55;;;;;;;7.07;6.37;;;;;;;;;;5022409;28;20300;-36
2022/04/23 06:35:22;;;;;;;6.23;5.63;;;;;;;;;;5034677;28;20245;-36
2022/04/23 06:37:50;;;;;;;7.07;6.37;;;;;;;;;;5032416;28;20285;-33
2022/04/23 06:40:17;;;;;;;7.37;6.47;;;;;;;;;;5031209;28;20209;-39
2022/04/23 06:42:44;;;;;;;7.00;6.30;;;;;;;;;;5017395;28;20271;-34
2022/04/23 06:45:11;;;;;;;6.23;5.63;;;;;;;;;;5015386;28;20318;-36
2022/04/23 06:47:38;;;;;;;7.63;6.83;;;;;;;;;;5021758;28;20208;-38
2022/04/23 06:50:08;;;;;;;9.87;7.20;;;;;;;;;;5020238;28;20195;-37
2022/04/23 06:52:35;;;;;;;7.13;6.30;;;;;;;;;;5021731;28;20203;-35
2022/04/23 06:55:02;;;;;;;7.47;6.67;;;;;;;;;;5021751;28;20222;-37
2022/04/23 06:57:29;;;;;;;7.00;5.87;;;;;;;;;;5036222;28;20317;-40
2022/04/23 07:00:02;;;;;;;7.60;6.90;;;;;;;;;;5026736;28;20208;-37
2022/04/23 07:02:29;;;;;;;7.60;6.77;;;;;;;;;;5029646;28;20209;-35
2022/04/23 07:04:56;;;;;;;7.80;7.00;;;;;;;;;;5019535;28;20207;-36
2022/04/23 07:07:25;;;;;;;12.10;6.20;;;;;;;;;;5028761;28;20253;-37
2022/04/23 07:09:52;;;;;;;6.77;6.03;;;;;;;;;;5027165;28;20235;-34
2022/04/23 07:12:19;;;;;;;7.53;6.60;;;;;;;;;;5024912;28;20207;-35
2022/04/23 07:14:46;;;;;;;6.67;6.07;;;;;;;;;;5042127;28;20209;-34
2022/04/23 07:17:13;;;;;;;7.83;7.03;;;;;;;;;;5023677;28;20207;-38
2022/04/23 07:19:40;;;;;;;6.53;5.83;;;;;;;;;;5019305;28;20227;-38
2022/04/23 07:22:08;;;;;;;6.60;5.87;;;;;;;;;;5017665;28;20219;-36
2022/04/23 07:24:41;;;;;;;6.53;5.93;;;;;;;;;;5014732;28;20211;-38
2022/04/23 07:27:08;;;;;;;6.87;6.17;;;;;;;;;;5034760;28;20234;-34
2022/04/23 07:29:35;;;;;;;7.00;6.30;;;;;;;;;;5028655;28;20230;-32
2022/04/23 07:32:02;;;;;;;7.77;6.47;;;;;;;;;;5025828;28;20210;-36
2022/04/23 07:37:29;;;;;;;8.77;6.13;;;;;;;;;;5030097;28;20271;-33
2022/04/23 07:39:58;;;;;;;8.53;6.60;;;;;;;;;;5028757;28;20202;-37
2022/04/23 07:42:26;;;;;;;10.30;7.30;;;;;;;;;;5022482;28;20207;-35
2022/04/23 07:44:53;;;;;;;10.23;6.40;;;;;;;;;;5034813;28;20260;-37
2022/04/23 07:47:20;;;;;;;8.27;6.67;;;;;;;;;;5015379;28;20218;-34
2022/04/23 07:49:47;;;;;;;9.10;6.30;;;;;;;;;;5020537;28;20242;-39
2022/04/23 07:52:14;;;;;;;6.93;5.67;;;;;;;;;;5027417;28;20205;-36
2022/04/23 07:54:43;;;;;;;7.70;6.30;;;;;;;;;;5028870;28;20221;-40
2022/04/23 07:57:12;;;;;;;9.10;6.97;;;;;;;;;;5040903;28;20264;-36
2022/04/23 07:59:42;;;;;;;10.47;6.53;;;;;;;;;;5032680;28;20231;-35
2022/04/23 08:02:09;;;;;;;8.43;6.77;;;;;;;;;;5020729;28;20206;-38
2022/04/23 08:04:37;;;;;;;7.63;6.60;;;;;;;;;;5026105;28;20209;-37
2022/04/23 08:07:04;;;;;;;7.73;6.77;;;;;;;;;;5030408;28;20222;-35
2022/04/23 08:09:37;;;;;;;9.63;7.27;;;;;;;;;;5016934;28;20227;-37
2022/04/23 08:12:05;;;;;;;7.70;6.90;;;;;;;;;;5026822;28;20203;-36
2022/04/23 08:14:33;;;;;;;8.40;7.47;;;;;;;;;;5033569;28;20289;-36
2022/04/23 08:17:00;;;;;;;10.20;6.77;;;;;;;;;;5025881;28;20269;-41
2022/04/23 08:19:27;;;;;;;10.33;6.93;;;;;;;;;;5021509;28;20210;-34
2022/04/23 08:21:55;;;;;;;8.83;5.87;;;;;;;;;;5022083;28;20203;-38
2022/04/23 08:24:22;;;;;;;8.37;6.77;;;;;;;;;;5029170;28;20210;-34
2022/04/23 08:26:49;;;;;;;7.43;6.30;;;;;;;;;;5014494;28;20220;-33
2022/04/23 08:32:05;;;;;;;9.23;7.13;;;;;;;;;;5025120;28;20252;-39
2022/04/23 08:34:32;;;;;;;8.70;6.63;;;;;;;;;;5029719;28;20198;-38
2022/04/23 08:36:59;;;;;;;9.10;7.10;;;;;;;;;;5024855;28;20226;-38
2022/04/23 08:39:27;;;;;;;9.27;6.80;;;;;;;;;;5014656;28;20261;-37
2022/04/23 08:41:54;;;;;;;8.47;6.87;;;;;;;;;;5019347;28;20241;-34
2022/04/23 08:44:22;;;;;;;20.07;6.50;;;;;;;;;;5026902;28;20203;-40
2022/04/23 08:46:50;;;;;;;8.53;7.10;;;;;;;;;;5023207;28;20310;-34
2022/04/23 08:49:19;;;;;;;8.23;6.67;;;;;;;;;;5013266;28;20226;-36
2022/04/23 08:51:54;;;;;;;7.50;6.40;;;;;;;;;;5021044;28;20203;-39
2022/04/23 08:54:26;;;;;;;7.90;6.00;;;;;;;;;;5026689;28;20205;-35
2022/04/23 08:56:53;;;;;;;9.40;6.53;;;;;;;;;;5037917;28;20244;-34
2022/04/23 08:59:21;;;;;;;8.03;5.70;;;;;;;;;;5038835;28;20206;-36
2022/04/23 09:01:48;;;;;;;7.17;5.40;;;;;;;;;;5027843;28;20206;-36
2022/04/23 09:04:15;;;;;;;6.70;6.00;;;;;;;;;;5035766;28;20230;-38
2022/04/23 09:06:45;;;;;;;6.73;5.67;;;;;;;;;;5017342;28;20223;-34
2022/04/23 09:09:20;;;;;;;7.23;5.23;;;;;;;;;;5026097;28;20226;-41
2022/04/23 09:11:47;;;;;;;8.73;5.93;;;;;;;;;;5029789;28;20203;-34
2022/04/23 09:14:25;;;;;;;6.40;5.80;;;;;;;;;;5030986;28;20198;-38
2022/04/23 09:25:11;;;;;;;6.90;5.10;;;;;;;;;;5000186;28;20253;-37
2022/04/23 09:27:43;;;;;;;6.30;5.17;;;;;;;;;;5021004;28;20217;-37
2022/04/23 09:30:12;;;;;;;6.93;6.17;;;;;;;;;;5032787;28;20210;-32
2022/04/23 09:32:39;;;;;;;7.43;5.97;;;;;;;;;;5022988;28;20261;-35
2022/04/23 09:35:07;;;;;;;8.03;6.17;;;;;;;;;;5031515;28;20232;-36
2022/04/23 09:40:21;;;;;;;7.63;5.73;;;;;;;;;;5032675;28;20206;-33
2022/04/23 09:42:58;;;;;;;6.80;6.10;;;;;;;;;;5038192;28;20210;-36
2022/04/23 09:45:27;;;;;;;8.97;6.20;;;;;;;;;;5040174;28;20223;-35
2022/04/23 09:47:54;;;;;;;7.47;6.23;;;;;;;;;;5033180;28;20203;-38
2022/04/23 09:50:21;;;;;;;7.30;5.93;;;;;;;;;;5040971;28;20223;-38
2022/04/23 09:52:50;;;;;;;8.50;6.87;;;;;;;;;;5029005;28;20206;-32
2022/04/23 09:55:35;;;;;;;7.50;5.87;;;;;;;;;;5030170;28;20241;-38
2022/04/23 09:58:05;;;;;;;7.60;6.13;;;;;;;;;;5029514;28;20214;-38
2022/04/23 10:00:32;;;;;;;7.33;5.90;;;;;;;;;;5025093;28;20202;-38
2022/04/23 10:03:00;;;;;;;7.40;6.37;;;;;;;;;;5035322;28;20217;-40
2022/04/23 10:05:28;;;;;;;7.77;6.30;;;;;;;;;;5035959;28;20237;-36
2022/04/23 10:07:58;;;;;;;10.10;6.50;;;;;;;;;;5021975;28;20218;-36
2022/04/23 10:10:27;;;;;;;8.33;6.17;;;;;;;;;;5024527;28;20234;-36
2022/04/23 10:12:57;;;;;;;10.83;6.20;;;;;;;;;;5035717;28;20293;-37
2022/04/23 10:15:24;;;;;;;7.70;5.83;;;;;;;;;;5050314;28;20229;-37
2022/04/23 10:17:52;;;;;;;8.43;5.90;;;;;;;;;;5030163;28;20211;-41
2022/04/23 10:20:20;;;;;;;7.03;5.97;;;;;;;;;;5028749;28;20212;-38
2022/04/23 10:22:53;;;;;;;8.83;6.53;;;;;;;;;;5022370;28;20207;-36
2022/04/23 10:25:25;;;;;;;7.53;6.53;;;;;;;;;;5032419;28;20296;-36
2022/04/23 10:27:56;;;;;;;4.43;3.47;;;;;;;;;;5019762;28;20204;-32
2022/04/23 10:30:23;;;;;;;6.50;5.80;;;;;;;;;;5030412;28;20268;-40
2022/04/23 10:32:50;;;;;;;5.00;3.43;;;;;;;;;;5023962;28;20202;-40
2022/04/23 10:35:33;;;;;;;8.43;5.93;;;;;;;;;;5019810;28;20242;-35
2022/04/23 10:38:18;;;;;;;7.13;5.53;;;;;;;;;;5018416;28;20208;-39
2022/04/23 10:40:47;;;;;;;6.53;5.63;;;;;;;;;;5032521;28;20201;-36
2022/04/23 10:43:19;;;;;;;7.47;5.87;;;;;;;;;;5036946;28;20230;-37
2022/04/23 10:45:48;;;;;;;7.90;5.93;;;;;;;;;;5021089;28;20231;-37
2022/04/23 10:48:28;;;;;;;5.23;4.67;;;;;;;;;;5028519;28;20203;-31
2022/04/23 10:51:03;;;;;;;6.67;5.60;;;;;;;;;;5030228;28;20248;-34
2022/04/23 10:53:30;;;;;;;7.80;6.20;;;;;;;;;;5023680;28;20211;-30
2022/04/23 10:56:08;;;;;;;5.97;5.20;;;;;;;;;;5042754;28;20226;-39
2022/04/23 10:58:40;;;;;;;6.77;5.80;;;;;;;;;;5028618;28;20226;-36
2022/04/23 11:01:23;;;;;;;6.07;5.40;;;;;;;;;;5025002;28;20291;-39
2022/04/23 11:03:51;;;;;;;6.53;5.37;;;;;;;;;;5029165;28;20203;-34
2022/04/23 11:12:18;;;;;;;7.47;5.73;;;;;;;;;;5028511;28;20201;-34
2022/04/23 11:14:47;;;;;;;8.00;5.30;;;;;;;;;;5043862;28;20206;-35
2022/04/23 11:17:14;;;;;;;8.80;5.80;;;;;;;;;;5026754;28;20206;-39
2022/04/23 11:19:41;;;;;;;6.10;5.27;;;;;;;;;;5034558;28;20206;-39
2022/04/23 11:22:09;;;;;;;6.40;5.47;;;;;;;;;;5027018;28;20204;-30
2022/04/23 11:24:36;;;;;;;6.00;5.33;;;;;;;;;;5020690;28;20259;-37
2022/04/23 11:27:05;;;;;;;8.07;5.83;;;;;;;;;;5027104;28;20226;-37
2022/04/23 11:29:32;;;;;;;7.77;5.40;;;;;;;;;;5034997;28;20226;-34
2022/04/23 11:31:59;;;;;;;7.90;5.93;;;;;;;;;;5021593;28;20211;-36
2022/04/23 11:34:27;;;;;;;8.93;6.33;;;;;;;;;;5027468;28;20210;-35
2022/04/23 11:36:55;;;;;;;6.57;5.83;;;;;;;;;;5026340;28;20235;-37
2022/04/23 11:39:28;;;;;;;8.20;6.43;;;;;;;;;;5026399;28;20202;-42
2022/04/23 11:41:55;;;;;;;6.30;5.47;;;;;;;;;;5031932;28;20207;-38
2022/04/23 11:44:45;;;;;;;7.73;5.80;;;;;;;;;;5041516;28;20215;-37
2022/04/23 11:47:12;;;;;;;6.10;5.50;;;;;;;;;;5032434;28;20207;-34
2022/04/23 11:49:39;;;;;;;7.70;6.53;;;;;;;;;;5028867;28;20234;-30
2022/04/23 11:52:07;;;;;;;6.43;5.70;;;;;;;;;;5018375;28;20238;-33
2022/04/23 11:54:35;;;;;;;5.37;4.83;;;;;;;;;;5025588;28;20219;-37
2022/04/23 11:57:02;;;;;;;8.17;5.70;;;;;;;;;;5022052;28;20231;-34
2022/04/23 11:59:37;;;;;;;6.43;5.83;;;;;;;;;;5012948;28;20208;-36
2022/04/23 12:02:06;;;;;;;7.23;5.20;;;;;;;;;;5020774;28;20211;-40
2022/04/23 12:04:42;;;;;;;7.17;5.53;;;;;;;;;;5021064;28;20202;-40
2022/04/23 12:07:10;;;;;;;8.00;5.37;;;;;;;;;;5026551;28;20218;-35
2022/04/23 12:09:44;;;;;;;7.63;5.40;;;;;;;;;;5024698;28;20252;-39
2022/04/23 12:12:12;;;;;;;5.87;4.70;;;;;;;;;;5014222;28;20195;-39
2022/04/23 12:14:45;;;;;;;6.03;4.67;;;;;;;;;;5013504;28;20253;-34
2022/04/23 12:17:13;;;;;;;6.37;4.50;;;;;;;;;;5032511;28;20209;-37
2022/04/23 12:19:40;;;;;;;6.07;5.23;;;;;;;;;;5025261;28;20226;-33
2022/04/23 12:22:07;;;;;;;5.37;4.73;;;;;;;;;;5028169;28;20213;-35
2022/04/23 12:24:34;;;;;;;5.47;4.97;;;;;;;;;;5017846;28;20211;-36
2022/04/23 12:27:02;;;;;;;6.20;4.80;;;;;;;;;;5020871;28;20302;-37
2022/04/23 12:40:47;;;;;;;7.13;5.47;;;;;;;;;;5021575;28;20242;-36
2022/04/23 12:43:21;;;;;;;5.77;4.83;;;;;;;;;;5013186;28;20683;-38
2022/04/23 12:45:48;;;;;;;5.27;4.77;;;;;;;;;;5012970;28;20250;-38
2022/04/23 12:48:16;;;;;;;7.27;5.80;;;;;;;;;;5025045;28;20202;-38
2022/04/23 12:50:46;;;;;;;6.30;5.47;;;;;;;;;;5031659;28;20225;-32
2022/04/23 12:53:13;;;;;;;7.33;4.80;;;;;;;;;;5018317;28;20200;-38
2022/04/23 12:55:50;;;;;;;6.60;5.40;;;;;;;;;;5030455;28;20252;-38
2022/04/23 12:58:18;;;;;;;7.73;5.60;;;;;;;;;;5031112;28;20225;-39
2022/04/23 13:00:45;;;;;;;7.50;6.77;;;;;;;;;;5028147;28;20212;-33
2022/04/23 13:03:23;;;;;;;6.40;5.53;;;;;;;;;;5012774;28;20207;-35
2022/04/23 13:05:51;;;;;;;9.03;6.43;;;;;;;;;;5020735;28;20238;-37
2022/04/23 13:13:44;;;;;;;7.47;5.67;;;;;;;;;;5011728;28;20202;-34
2022/04/23 13:16:11;;;;;;;6.43;5.73;;;;;;;;;;5021354;28;20233;-36
2022/04/23 13:18:38;;;;;;;9.93;6.33;;;;;;;;;;5030995;28;20213;-34
2022/04/23 13:21:08;;;;;;;7.10;6.40;;;;;;;;;;5011735;28;20204;-37
2022/04/23 13:23:35;;;;;;;8.57;6.17;;;;;;;;;;5024527;28;20257;-34
2022/04/23 13:26:03;;;;;;;7.10;6.20;;;;;;;;;;5023690;28;20280;-37
2022/04/23 13:28:30;;;;;;;6.17;5.57;;;;;;;;;;5032469;28;20206;-38
2022/04/23 13:30:57;;;;;;;6.47;5.87;;;;;;;;;;5027005;28;20211;-36
2022/04/23 13:33:24;;;;;;;8.03;6.90;;;;;;;;;;5031846;28;20207;-40
2022/04/23 13:35:51;;;;;;;7.90;6.70;;;;;;;;;;5013255;28;20223;-40
2022/04/23 13:38:20;;;;;;;6.73;5.70;;;;;;;;;;5024910;28;20216;-37
2022/04/23 13:40:48;;;;;;;8.00;5.93;;;;;;;;;;5023888;28;20200;-38
2022/04/23 13:43:15;;;;;;;7.93;6.30;;;;;;;;;;5032575;28;20213;-33
2022/04/23 13:45:42;;;;;;;8.00;6.53;;;;;;;;;;5031130;28;20253;-37
2022/04/23 13:48:10;;;;;;;7.07;6.37;;;;;;;;;;5020580;28;20199;-32
2022/04/23 13:50:37;;;;;;;8.73;6.17;;;;;;;;;;5015797;28;20215;-35
2022/04/23 13:53:05;;;;;;;8.90;6.67;;;;;;;;;;5026059;28;20215;-38
2022/04/23 13:55:33;;;;;;;7.50;6.63;;;;;;;;;;5013044;28;20238;-38
2022/04/23 13:58:00;;;;;;;8.67;6.57;;;;;;;;;;5013373;28;20214;-41
2022/04/23 14:00:27;;;;;;;9.37;6.90;;;;;;;;;;5021167;28;20207;-34
2022/04/23 14:11:21;;;;;;;7.63;6.60;;;;;;;;;;5014046;28;20286;-35
2022/04/23 14:13:50;;;;;;;8.00;7.00;;;;;;;;;;5032034;28;20210;-35
2022/04/23 14:16:18;;;;;;;7.87;6.87;;;;;;;;;;5019446;28;20234;-33
2022/04/23 14:18:45;;;;;;;8.30;7.00;;;;;;;;;;5021964;28;20210;-38
2022/04/23 14:21:12;;;;;;;7.67;6.70;;;;;;;;;;5030003;28;20203;-41
2022/04/23 14:23:39;;;;;;;7.73;6.67;;;;;;;;;;5026907;28;20266;-38
2022/04/23 14:26:06;;;;;;;7.10;6.40;;;;;;;;;;5032165;28;20234;-37
2022/04/23 14:28:34;;;;;;;9.63;7.67;;;;;;;;;;5035337;28;20214;-40
2022/04/23 14:31:01;;;;;;;8.47;7.50;;;;;;;;;;5029428;28;20223;-40
2022/04/23 14:33:29;;;;;;;7.90;7.07;;;;;;;;;;5023704;28;20215;-35
2022/04/23 14:35:56;;;;;;;11.50;7.07;;;;;;;;;;5015512;28;20223;-39
2022/04/23 14:38:23;;;;;;;10.47;7.30;;;;;;;;;;5025544;28;20211;-34
2022/04/23 14:40:50;;;;;;;8.50;7.30;;;;;;;;;;5027237;28;20211;-38
2022/04/23 14:43:17;;;;;;;7.47;5.70;;;;;;;;;;5035184;28;20209;-31
2022/04/23 14:45:46;;;;;;;8.93;7.80;;;;;;;;;;5030300;28;20225;-40
2022/04/23 14:48:13;;;;;;;10.40;7.90;;;;;;;;;;5017595;28;20210;-41
2022/04/23 14:53:25;;;;;;;10.17;7.77;;;;;;;;;;5030341;28;20207;-38
2022/04/23 14:55:52;;;;;;;11.90;7.87;;;;;;;;;;5023265;28;20232;-36
2022/04/23 14:58:21;;;;;;;10.13;7.33;;;;;;;;;;5015640;28;20215;-39
2022/04/23 15:00:49;;;;;;;9.90;7.80;;;;;;;;;;5034150;28;20202;-40
2022/04/23 15:03:17;;;;;;;12.80;7.80;;;;;;;;;;5022374;28;20198;-38
2022/04/23 15:05:45;;;;;;;11.90;7.87;;;;;;;;;;5024853;28;20252;-35
2022/04/23 15:08:12;;;;;;;9.00;7.50;;;;;;;;;;5021449;28;20214;-38
2022/04/23 15:10:39;;;;;;;12.27;8.90;;;;;;;;;;5033333;28;20227;-37
2022/04/23 15:13:08;;;;;;;10.87;8.53;;;;;;;;;;5036133;28;20202;-37
2022/04/23 15:15:35;;;;;;;10.30;8.33;;;;;;;;;;5032363;28;20234;-34
2022/04/23 15:18:03;;;;;;;11.97;7.80;;;;;;;;;;5035163;28;20206;-35
2022/04/23 15:20:30;;;;;;;11.37;8.67;;;;;;;;;;5027597;28;20201;-36
2022/04/23 15:22:57;;;;;;;11.77;8.90;;;;;;;;;;5022440;28;20210;-37
2022/04/23 15:25:24;;;;;;;10.20;8.00;;;;;;;;;;5023043;28;20229;-38
2022/04/23 15:27:54;;;;;;;15.77;8.90;;;;;;;;;;5016882;28;20203;-37
2022/04/23 15:30:23;;;;;;;10.37;8.13;;;;;;;;;;5016233;28;20208;-39
2022/04/23 15:32:50;;;;;;;11.60;9.30;;;;;;;;;;5028843;28;20211;-34
2022/04/23 15:35:19;;;;;;;10.50;8.83;;;;;;;;;;5021577;28;20295;-36
2022/04/23 15:37:46;;;;;;;12.60;9.03;;;;;;;;;;5027151;28;20206;-33